sensor_id;sensor_type;location;lat;lon;timestamp;pressure;altitude;pressure_sealevel;temperature
11424;BMP180;5768;51.476;7.210;2022-08-21T00:05:00;100432.00;;;21.70
11424;BMP180;5768;51.476;7.210;2022-08-21T00:10:05;100426.00;;;21.70
11424;BMP180;5768;51.476;7.210;2022-08-21T00:15:10;100422.00;;;21.60
11424;BMP180;5768;51.476;7.210;2022-08-21T00:20:15;100409.00;;;21.50
11424;BMP180;5768;51.476;7.210;2022-08-21T00:25:20;100409.00;;;21.30
11424;BMP180;5768;51.476;7.210;2022-08-21T00:30:25;100408.00;;;21.20
11424;BMP180;5768;51.476;7.210;2022-08-21T00:35:31;100402.00;;;21.10
11424;BMP180;5768;51.476;7.210;2022-08-21T00:40:46;100403.00;;;21.00
11424;BMP180;5768;51.476;7.210;2022-08-21T00:45:49;100397.00;;;20.80
11424;BMP180;5768;51.476;7.210;2022-08-21T00:50:58;100400.00;;;20.80
11424;BMP180;5768;51.476;7.210;2022-08-21T00:56:05;100401.00;;;20.90
11424;BMP180;5768;51.476;7.210;2022-08-21T01:01:09;100395.00;;;21.00
11424;BMP180;5768;51.476;7.210;2022-08-21T01:06:11;100407.00;;;21.10
11424;BMP180;5768;51.476;7.210;2022-08-21T01:11:15;100401.00;;;21.30
11424;BMP180;5768;51.476;7.210;2022-08-21T01:16:21;100401.00;;;21.30
11424;BMP180;5768;51.476;7.210;2022-08-21T01:21:26;100412.00;;;21.40
11424;BMP180;5768;51.476;7.210;2022-08-21T01:26:32;100403.00;;;21.30
11424;BMP180;5768;51.476;7.210;2022-08-21T01:31:36;100401.00;;;21.10
11424;BMP180;5768;51.476;7.210;2022-08-21T01:36:42;100404.00;;;20.90
11424;BMP180;5768;51.476;7.210;2022-08-21T01:41:45;100401.00;;;20.80
11424;BMP180;5768;51.476;7.210;2022-08-21T01:46:52;100405.00;;;20.60
11424;BMP180;5768;51.476;7.210;2022-08-21T01:51:58;100401.00;;;20.40
11424;BMP180;5768;51.476;7.210;2022-08-21T01:57:01;100390.00;;;20.30
11424;BMP180;5768;51.476;7.210;2022-08-21T02:02:04;100388.00;;;20.20
11424;BMP180;5768;51.476;7.210;2022-08-21T02:07:08;100389.00;;;20.20
11424;BMP180;5768;51.476;7.210;2022-08-21T02:12:11;100393.00;;;20.10
11424;BMP180;5768;51.476;7.210;2022-08-21T02:17:14;100382.00;;;20.00
11424;BMP180;5768;51.476;7.210;2022-08-21T02:22:18;100378.00;;;20.00
11424;BMP180;5768;51.476;7.210;2022-08-21T02:27:21;100374.00;;;19.90
11424;BMP180;5768;51.476;7.210;2022-08-21T02:32:24;100375.00;;;19.90
11424;BMP180;5768;51.476;7.210;2022-08-21T02:37:28;100372.00;;;19.80
11424;BMP180;5768;51.476;7.210;2022-08-21T02:42:31;100374.00;;;19.80
11424;BMP180;5768;51.476;7.210;2022-08-21T02:47:33;100369.00;;;19.70
11424;BMP180;5768;51.476;7.210;2022-08-21T02:52:37;100383.00;;;19.60
11424;BMP180;5768;51.476;7.210;2022-08-21T02:57:39;100384.00;;;19.70
11424;BMP180;5768;51.476;7.210;2022-08-21T03:02:42;100376.00;;;19.70
11424;BMP180;5768;51.476;7.210;2022-08-21T03:07:49;100382.00;;;19.70
11424;BMP180;5768;51.476;7.210;2022-08-21T03:12:53;100370.00;;;19.60
11424;BMP180;5768;51.476;7.210;2022-08-21T03:17:56;100355.00;;;19.60
11424;BMP180;5768;51.476;7.210;2022-08-21T03:23:01;100353.00;;;19.60
11424;BMP180;5768;51.476;7.210;2022-08-21T03:28:07;100360.00;;;19.50
11424;BMP180;5768;51.476;7.210;2022-08-21T03:33:11;100364.00;;;19.50
11424;BMP180;5768;51.476;7.210;2022-08-21T03:38:14;100362.00;;;19.50
11424;BMP180;5768;51.476;7.210;2022-08-21T03:43:16;100359.00;;;19.50
11424;BMP180;5768;51.476;7.210;2022-08-21T03:48:20;100358.00;;;19.50
11424;BMP180;5768;51.476;7.210;2022-08-21T03:53:23;100359.00;;;19.40
11424;BMP180;5768;51.476;7.210;2022-08-21T03:58:28;100360.00;;;19.40
11424;BMP180;5768;51.476;7.210;2022-08-21T04:03:30;100351.00;;;19.40
11424;BMP180;5768;51.476;7.210;2022-08-21T04:08:34;100367.00;;;19.30
11424;BMP180;5768;51.476;7.210;2022-08-21T04:13:38;100368.00;;;19.20
11424;BMP180;5768;51.476;7.210;2022-08-21T04:18:42;100373.00;;;19.10
11424;BMP180;5768;51.476;7.210;2022-08-21T04:23:45;100371.00;;;19.10
11424;BMP180;5768;51.476;7.210;2022-08-21T04:28:47;100377.00;;;19.00
11424;BMP180;5768;51.476;7.210;2022-08-21T04:33:50;100373.00;;;19.00
11424;BMP180;5768;51.476;7.210;2022-08-21T04:38:53;100373.00;;;19.00
11424;BMP180;5768;51.476;7.210;2022-08-21T04:43:56;100373.00;;;19.10
11424;BMP180;5768;51.476;7.210;2022-08-21T04:48:58;100375.00;;;19.10
11424;BMP180;5768;51.476;7.210;2022-08-21T04:54:09;100375.00;;;19.10
11424;BMP180;5768;51.476;7.210;2022-08-21T04:59:19;100379.00;;;19.10
11424;BMP180;5768;51.476;7.210;2022-08-21T05:04:27;100391.00;;;19.20
11424;BMP180;5768;51.476;7.210;2022-08-21T05:09:33;100383.00;;;19.40
11424;BMP180;5768;51.476;7.210;2022-08-21T05:14:36;100384.00;;;19.70
11424;BMP180;5768;51.476;7.210;2022-08-21T05:19:39;100388.00;;;19.90
11424;BMP180;5768;51.476;7.210;2022-08-21T05:24:43;100389.00;;;20.00
11424;BMP180;5768;51.476;7.210;2022-08-21T05:29:45;100392.00;;;20.10
11424;BMP180;5768;51.476;7.210;2022-08-21T05:34:53;100403.00;;;20.20
11424;BMP180;5768;51.476;7.210;2022-08-21T05:40:03;100405.00;;;20.10
11424;BMP180;5768;51.476;7.210;2022-08-21T05:45:08;100403.00;;;20.00
11424;BMP180;5768;51.476;7.210;2022-08-21T05:50:11;100416.00;;;20.00
11424;BMP180;5768;51.476;7.210;2022-08-21T05:55:14;100413.00;;;20.00
11424;BMP180;5768;51.476;7.210;2022-08-21T06:00:17;100413.00;;;20.10
11424;BMP180;5768;51.476;7.210;2022-08-21T06:05:19;100411.00;;;20.10
11424;BMP180;5768;51.476;7.210;2022-08-21T06:10:23;100404.00;;;20.20
11424;BMP180;5768;51.476;7.210;2022-08-21T06:15:26;100391.00;;;20.20
11424;BMP180;5768;51.476;7.210;2022-08-21T06:20:28;100392.00;;;20.30
11424;BMP180;5768;51.476;7.210;2022-08-21T06:25:32;100389.00;;;20.40
11424;BMP180;5768;51.476;7.210;2022-08-21T06:30:36;100386.00;;;20.50
11424;BMP180;5768;51.476;7.210;2022-08-21T06:35:39;100394.00;;;20.70
11424;BMP180;5768;51.476;7.210;2022-08-21T06:40:43;100401.00;;;20.90
11424;BMP180;5768;51.476;7.210;2022-08-21T06:45:47;100391.00;;;21.10
11424;BMP180;5768;51.476;7.210;2022-08-21T06:50:49;100393.00;;;21.20
11424;BMP180;5768;51.476;7.210;2022-08-21T06:55:53;100403.00;;;21.40
11424;BMP180;5768;51.476;7.210;2022-08-21T07:00:59;100402.00;;;21.50
11424;BMP180;5768;51.476;7.210;2022-08-21T07:06:01;100396.00;;;21.50
11424;BMP180;5768;51.476;7.210;2022-08-21T07:11:12;100398.00;;;21.60
11424;BMP180;5768;51.476;7.210;2022-08-21T07:16:15;100394.00;;;21.70
11424;BMP180;5768;51.476;7.210;2022-08-21T07:21:18;100394.00;;;21.80
11424;BMP180;5768;51.476;7.210;2022-08-21T07:26:23;100398.00;;;22.00
11424;BMP180;5768;51.476;7.210;2022-08-21T07:31:30;100401.00;;;22.20
11424;BMP180;5768;51.476;7.210;2022-08-21T07:36:32;100411.00;;;22.30
11424;BMP180;5768;51.476;7.210;2022-08-21T07:41:43;100406.00;;;22.30
11424;BMP180;5768;51.476;7.210;2022-08-21T07:46:45;100396.00;;;22.30
11424;BMP180;5768;51.476;7.210;2022-08-21T07:51:55;100405.00;;;22.50
11424;BMP180;5768;51.476;7.210;2022-08-21T07:56:59;100395.00;;;22.50
11424;BMP180;5768;51.476;7.210;2022-08-21T08:02:02;100410.00;;;22.70
11424;BMP180;5768;51.476;7.210;2022-08-21T08:07:04;100415.00;;;22.80
11424;BMP180;5768;51.476;7.210;2022-08-21T08:12:08;100409.00;;;22.90
11424;BMP180;5768;51.476;7.210;2022-08-21T08:17:11;100409.00;;;22.90
11424;BMP180;5768;51.476;7.210;2022-08-21T08:22:15;100403.00;;;23.00
11424;BMP180;5768;51.476;7.210;2022-08-21T08:27:20;100408.00;;;23.10
11424;BMP180;5768;51.476;7.210;2022-08-21T08:32:22;100404.00;;;23.30
11424;BMP180;5768;51.476;7.210;2022-08-21T08:37:25;100395.00;;;23.40
11424;BMP180;5768;51.476;7.210;2022-08-21T08:42:32;100386.00;;;23.50
11424;BMP180;5768;51.476;7.210;2022-08-21T08:47:40;100397.00;;;23.60
11424;BMP180;5768;51.476;7.210;2022-08-21T08:52:51;100388.00;;;23.80
11424;BMP180;5768;51.476;7.210;2022-08-21T08:57:56;100403.00;;;24.00
11424;BMP180;5768;51.476;7.210;2022-08-21T09:03:01;100398.00;;;24.10
11424;BMP180;5768;51.476;7.210;2022-08-21T09:08:31;100395.00;;;24.20
11424;BMP180;5768;51.476;7.210;2022-08-21T09:13:51;100382.00;;;24.20
11424;BMP180;5768;51.476;7.210;2022-08-21T09:19:07;100385.00;;;24.40
11424;BMP180;5768;51.476;7.210;2022-08-21T09:24:31;100372.00;;;24.40
11424;BMP180;5768;51.476;7.210;2022-08-21T09:29:41;100374.00;;;24.30
11424;BMP180;5768;51.476;7.210;2022-08-21T09:34:57;100371.00;;;24.30
11424;BMP180;5768;51.476;7.210;2022-08-21T09:40:01;100371.00;;;24.20
11424;BMP180;5768;51.476;7.210;2022-08-21T09:45:17;100378.00;;;24.10
11424;BMP180;5768;51.476;7.210;2022-08-21T09:50:24;100379.00;;;24.20
11424;BMP180;5768;51.476;7.210;2022-08-21T09:55:34;100380.00;;;24.30
11424;BMP180;5768;51.476;7.210;2022-08-21T10:01:05;100360.00;;;24.60
11424;BMP180;5768;51.476;7.210;2022-08-21T10:06:09;100353.00;;;24.80
11424;BMP180;5768;51.476;7.210;2022-08-21T10:11:16;100359.00;;;24.90
11424;BMP180;5768;51.476;7.210;2022-08-21T10:16:33;100357.00;;;24.80
11424;BMP180;5768;51.476;7.210;2022-08-21T10:21:48;100360.00;;;24.80
11424;BMP180;5768;51.476;7.210;2022-08-21T10:27:05;100354.00;;;25.00
11424;BMP180;5768;51.476;7.210;2022-08-21T10:32:31;100349.00;;;25.00
11424;BMP180;5768;51.476;7.210;2022-08-21T10:37:56;100341.00;;;25.20
11424;BMP180;5768;51.476;7.210;2022-08-21T10:43:19;100345.00;;;25.30
11424;BMP180;5768;51.476;7.210;2022-08-21T10:48:39;100344.00;;;25.50
11424;BMP180;5768;51.476;7.210;2022-08-21T10:54:04;100336.00;;;25.70
11424;BMP180;5768;51.476;7.210;2022-08-21T10:59:25;100336.00;;;25.90
11424;BMP180;5768;51.476;7.210;2022-08-21T11:04:37;100335.00;;;26.10
11424;BMP180;5768;51.476;7.210;2022-08-21T11:09:46;100333.00;;;26.50
11424;BMP180;5768;51.476;7.210;2022-08-21T11:15:01;100338.00;;;26.80
11424;BMP180;5768;51.476;7.210;2022-08-21T11:20:16;100341.00;;;26.90
11424;BMP180;5768;51.476;7.210;2022-08-21T11:25:27;100337.00;;;27.40
11424;BMP180;5768;51.476;7.210;2022-08-21T11:30:50;100330.00;;;27.40
11424;BMP180;5768;51.476;7.210;2022-08-21T11:36:02;100334.00;;;27.50
11424;BMP180;5768;51.476;7.210;2022-08-21T11:41:22;100330.00;;;27.70
11424;BMP180;5768;51.476;7.210;2022-08-21T11:46:35;100335.00;;;28.10
11424;BMP180;5768;51.476;7.210;2022-08-21T11:51:46;100353.00;;;28.20
11424;BMP180;5768;51.476;7.210;2022-08-21T11:56:56;100346.00;;;28.10
11424;BMP180;5768;51.476;7.210;2022-08-21T12:02:00;100341.00;;;28.20
11424;BMP180;5768;51.476;7.210;2022-08-21T12:07:15;100331.00;;;28.10
11424;BMP180;5768;51.476;7.210;2022-08-21T12:12:26;100341.00;;;27.70
11424;BMP180;5768;51.476;7.210;2022-08-21T12:17:37;100354.00;;;28.00
11424;BMP180;5768;51.476;7.210;2022-08-21T12:22:49;100338.00;;;28.30
11424;BMP180;5768;51.476;7.210;2022-08-21T12:28:07;100339.00;;;28.80
11424;BMP180;5768;51.476;7.210;2022-08-21T12:33:25;100340.00;;;29.10
11424;BMP180;5768;51.476;7.210;2022-08-21T12:38:43;100334.00;;;29.80
11424;BMP180;5768;51.476;7.210;2022-08-21T12:43:57;100344.00;;;30.50
11424;BMP180;5768;51.476;7.210;2022-08-21T12:49:07;100336.00;;;31.40
11424;BMP180;5768;51.476;7.210;2022-08-21T12:54:26;100342.00;;;32.40
11424;BMP180;5768;51.476;7.210;2022-08-21T12:59:30;100342.00;;;32.80
11424;BMP180;5768;51.476;7.210;2022-08-21T13:04:40;100335.00;;;33.20
11424;BMP180;5768;51.476;7.210;2022-08-21T13:09:50;100331.00;;;33.80
11424;BMP180;5768;51.476;7.210;2022-08-21T13:14:58;100336.00;;;33.80
11424;BMP180;5768;51.476;7.210;2022-08-21T13:20:07;100334.00;;;33.70
11424;BMP180;5768;51.476;7.210;2022-08-21T13:25:16;100332.00;;;35.00
11424;BMP180;5768;51.476;7.210;2022-08-21T13:30:21;100331.00;;;36.60
11424;BMP180;5768;51.476;7.210;2022-08-21T13:35:28;100322.00;;;36.10
11424;BMP180;5768;51.476;7.210;2022-08-21T13:40:49;100318.00;;;37.00
11424;BMP180;5768;51.476;7.210;2022-08-21T13:45:53;100332.00;;;36.30
11424;BMP180;5768;51.476;7.210;2022-08-21T13:50:57;100317.00;;;35.30
11424;BMP180;5768;51.476;7.210;2022-08-21T13:56:04;100319.00;;;36.20
11424;BMP180;5768;51.476;7.210;2022-08-21T14:01:21;100318.00;;;37.10
11424;BMP180;5768;51.476;7.210;2022-08-21T14:06:27;100313.00;;;37.20
11424;BMP180;5768;51.476;7.210;2022-08-21T14:11:34;100309.00;;;37.70
11424;BMP180;5768;51.476;7.210;2022-08-21T14:16:47;100314.00;;;39.30
11424;BMP180;5768;51.476;7.210;2022-08-21T14:21:55;100308.00;;;41.90
11424;BMP180;5768;51.476;7.210;2022-08-21T14:27:03;100318.00;;;39.10
11424;BMP180;5768;51.476;7.210;2022-08-21T14:32:15;100310.00;;;36.00
11424;BMP180;5768;51.476;7.210;2022-08-21T14:37:17;100311.00;;;34.60
11424;BMP180;5768;51.476;7.210;2022-08-21T14:42:21;100305.00;;;33.80
11424;BMP180;5768;51.476;7.210;2022-08-21T14:47:23;100300.00;;;32.60
11424;BMP180;5768;51.476;7.210;2022-08-21T14:52:25;100298.00;;;32.00
11424;BMP180;5768;51.476;7.210;2022-08-21T14:57:32;100288.00;;;31.50
11424;BMP180;5768;51.476;7.210;2022-08-21T15:02:36;100290.00;;;31.70
11424;BMP180;5768;51.476;7.210;2022-08-21T15:07:38;100290.00;;;31.50
11424;BMP180;5768;51.476;7.210;2022-08-21T15:12:41;100293.00;;;31.70
11424;BMP180;5768;51.476;7.210;2022-08-21T15:17:44;100301.00;;;32.60
11424;BMP180;5768;51.476;7.210;2022-08-21T15:22:46;100296.00;;;33.00
11424;BMP180;5768;51.476;7.210;2022-08-21T15:27:50;100299.00;;;33.40
11424;BMP180;5768;51.476;7.210;2022-08-21T15:32:52;100305.00;;;35.70
11424;BMP180;5768;51.476;7.210;2022-08-21T15:37:54;100292.00;;;36.70
11424;BMP180;5768;51.476;7.210;2022-08-21T15:43:01;100297.00;;;35.50
11424;BMP180;5768;51.476;7.210;2022-08-21T15:48:04;100288.00;;;34.60
11424;BMP180;5768;51.476;7.210;2022-08-21T15:53:06;100293.00;;;34.50
11424;BMP180;5768;51.476;7.210;2022-08-21T15:58:15;100295.00;;;35.90
11424;BMP180;5768;51.476;7.210;2022-08-21T16:03:18;100288.00;;;36.90
11424;BMP180;5768;51.476;7.210;2022-08-21T16:08:23;100295.00;;;40.70
11424;BMP180;5768;51.476;7.210;2022-08-21T16:13:32;100288.00;;;40.30
11424;BMP180;5768;51.476;7.210;2022-08-21T16:18:37;100293.00;;;38.80
11424;BMP180;5768;51.476;7.210;2022-08-21T16:23:40;100291.00;;;37.70
11424;BMP180;5768;51.476;7.210;2022-08-21T16:28:45;100288.00;;;36.20
11424;BMP180;5768;51.476;7.210;2022-08-21T16:33:52;100288.00;;;35.40
11424;BMP180;5768;51.476;7.210;2022-08-21T16:38:57;100282.00;;;34.50
11424;BMP180;5768;51.476;7.210;2022-08-21T16:44:02;100286.00;;;34.70
11424;BMP180;5768;51.476;7.210;2022-08-21T16:49:05;100282.00;;;34.70
11424;BMP180;5768;51.476;7.210;2022-08-21T16:54:08;100283.00;;;34.60
11424;BMP180;5768;51.476;7.210;2022-08-21T16:59:12;100286.00;;;33.70
11424;BMP180;5768;51.476;7.210;2022-08-21T17:04:15;100284.00;;;32.60
11424;BMP180;5768;51.476;7.210;2022-08-21T17:09:17;100281.00;;;32.00
11424;BMP180;5768;51.476;7.210;2022-08-21T17:14:22;100287.00;;;31.80
11424;BMP180;5768;51.476;7.210;2022-08-21T17:19:25;100288.00;;;31.50
11424;BMP180;5768;51.476;7.210;2022-08-21T17:24:30;100284.00;;;30.40
11424;BMP180;5768;51.476;7.210;2022-08-21T17:29:39;100286.00;;;29.60
11424;BMP180;5768;51.476;7.210;2022-08-21T17:34:42;100286.00;;;29.20
11424;BMP180;5768;51.476;7.210;2022-08-21T17:39:45;100286.00;;;29.00
11424;BMP180;5768;51.476;7.210;2022-08-21T17:44:50;100287.00;;;28.50
11424;BMP180;5768;51.476;7.210;2022-08-21T17:49:52;100281.00;;;28.10
11424;BMP180;5768;51.476;7.210;2022-08-21T17:54:54;100277.00;;;27.80
11424;BMP180;5768;51.476;7.210;2022-08-21T17:59:58;100284.00;;;27.50
11424;BMP180;5768;51.476;7.210;2022-08-21T18:05:01;100291.00;;;27.20
11424;BMP180;5768;51.476;7.210;2022-08-21T18:10:08;100290.00;;;27.00
11424;BMP180;5768;51.476;7.210;2022-08-21T18:15:15;100294.00;;;26.80
11424;BMP180;5768;51.476;7.210;2022-08-21T18:20:21;100287.00;;;26.60
11424;BMP180;5768;51.476;7.210;2022-08-21T18:25:24;100286.00;;;26.40
11424;BMP180;5768;51.476;7.210;2022-08-21T18:30:28;100289.00;;;26.20
11424;BMP180;5768;51.476;7.210;2022-08-21T18:35:31;100284.00;;;26.00
11424;BMP180;5768;51.476;7.210;2022-08-21T18:40:37;100292.00;;;25.80
11424;BMP180;5768;51.476;7.210;2022-08-21T18:45:42;100288.00;;;25.60
11424;BMP180;5768;51.476;7.210;2022-08-21T18:50:47;100296.00;;;25.50
11424;BMP180;5768;51.476;7.210;2022-08-21T18:55:49;100298.00;;;25.30
11424;BMP180;5768;51.476;7.210;2022-08-21T19:00:53;100303.00;;;25.10
11424;BMP180;5768;51.476;7.210;2022-08-21T19:05:55;100299.00;;;25.00
11424;BMP180;5768;51.476;7.210;2022-08-21T19:10:58;100308.00;;;24.80
11424;BMP180;5768;51.476;7.210;2022-08-21T19:16:04;100319.00;;;24.70
11424;BMP180;5768;51.476;7.210;2022-08-21T19:21:07;100321.00;;;24.60
11424;BMP180;5768;51.476;7.210;2022-08-21T19:26:09;100319.00;;;24.50
11424;BMP180;5768;51.476;7.210;2022-08-21T19:31:28;100312.00;;;24.40
11424;BMP180;5768;51.476;7.210;2022-08-21T19:36:33;100317.00;;;24.30
11424;BMP180;5768;51.476;7.210;2022-08-21T19:41:41;100317.00;;;24.20
11424;BMP180;5768;51.476;7.210;2022-08-21T19:46:56;100323.00;;;24.10
11424;BMP180;5768;51.476;7.210;2022-08-21T19:52:01;100322.00;;;24.10
11424;BMP180;5768;51.476;7.210;2022-08-21T19:57:05;100330.00;;;24.00
11424;BMP180;5768;51.476;7.210;2022-08-21T20:02:12;100326.00;;;23.90
11424;BMP180;5768;51.476;7.210;2022-08-21T20:07:22;100338.00;;;23.80
11424;BMP180;5768;51.476;7.210;2022-08-21T20:12:25;100334.00;;;23.70
11424;BMP180;5768;51.476;7.210;2022-08-21T20:17:29;100334.00;;;23.70
11424;BMP180;5768;51.476;7.210;2022-08-21T20:22:32;100334.00;;;23.70
11424;BMP180;5768;51.476;7.210;2022-08-21T20:27:34;100335.00;;;23.60
11424;BMP180;5768;51.476;7.210;2022-08-21T20:32:38;100334.00;;;23.60
11424;BMP180;5768;51.476;7.210;2022-08-21T20:37:44;100330.00;;;23.50
11424;BMP180;5768;51.476;7.210;2022-08-21T20:42:50;100334.00;;;23.50
11424;BMP180;5768;51.476;7.210;2022-08-21T20:48:01;100330.00;;;23.50
11424;BMP180;5768;51.476;7.210;2022-08-21T20:53:13;100333.00;;;23.40
11424;BMP180;5768;51.476;7.210;2022-08-21T20:58:27;100326.00;;;23.40
11424;BMP180;5768;51.476;7.210;2022-08-21T21:03:39;100325.00;;;23.40
11424;BMP180;5768;51.476;7.210;2022-08-21T21:08:46;100332.00;;;23.40
11424;BMP180;5768;51.476;7.210;2022-08-21T21:13:54;100333.00;;;23.40
11424;BMP180;5768;51.476;7.210;2022-08-21T21:19:03;100320.00;;;23.40
11424;BMP180;5768;51.476;7.210;2022-08-21T21:24:12;100325.00;;;23.30
11424;BMP180;5768;51.476;7.210;2022-08-21T21:29:21;100331.00;;;23.30
11424;BMP180;5768;51.476;7.210;2022-08-21T21:34:32;100317.00;;;23.30
11424;BMP180;5768;51.476;7.210;2022-08-21T21:39:47;100334.00;;;23.20
11424;BMP180;5768;51.476;7.210;2022-08-21T21:45:13;100335.00;;;23.20
11424;BMP180;5768;51.476;7.210;2022-08-21T21:50:50;100335.00;;;23.10
11424;BMP180;5768;51.476;7.210;2022-08-21T21:56:16;100344.00;;;23.00
11424;BMP180;5768;51.476;7.210;2022-08-21T22:01:35;100341.00;;;22.90
11424;BMP180;5768;51.476;7.210;2022-08-21T22:06:49;100340.00;;;22.80
11424;BMP180;5768;51.476;7.210;2022-08-21T22:12:02;100335.00;;;22.80
11424;BMP180;5768;51.476;7.210;2022-08-21T22:17:21;100340.00;;;22.70
11424;BMP180;5768;51.476;7.210;2022-08-21T22:22:28;100344.00;;;22.70
11424;BMP180;5768;51.476;7.210;2022-08-21T22:27:36;100339.00;;;22.60
11424;BMP180;5768;51.476;7.210;2022-08-21T22:32:42;100334.00;;;22.60
11424;BMP180;5768;51.476;7.210;2022-08-21T22:37:49;100340.00;;;22.60
11424;BMP180;5768;51.476;7.210;2022-08-21T22:43:01;100335.00;;;22.60
11424;BMP180;5768;51.476;7.210;2022-08-21T22:48:05;100338.00;;;22.60
11424;BMP180;5768;51.476;7.210;2022-08-21T22:53:23;100340.00;;;22.60
11424;BMP180;5768;51.476;7.210;2022-08-21T22:58:29;100337.00;;;22.60
11424;BMP180;5768;51.476;7.210;2022-08-21T23:03:45;100339.00;;;22.60
11424;BMP180;5768;51.476;7.210;2022-08-21T23:08:50;100335.00;;;22.60
11424;BMP180;5768;51.476;7.210;2022-08-21T23:13:54;100336.00;;;22.60
11424;BMP180;5768;51.476;7.210;2022-08-21T23:19:07;100338.00;;;22.50
11424;BMP180;5768;51.476;7.210;2022-08-21T23:24:49;100343.00;;;22.40
11424;BMP180;5768;51.476;7.210;2022-08-21T23:30:06;100340.00;;;22.30
11424;BMP180;5768;51.476;7.210;2022-08-21T23:35:18;100334.00;;;22.20
11424;BMP180;5768;51.476;7.210;2022-08-21T23:40:51;100337.00;;;22.00
11424;BMP180;5768;51.476;7.210;2022-08-21T23:46:20;100326.00;;;21.90
11424;BMP180;5768;51.476;7.210;2022-08-21T23:51:33;100325.00;;;21.80
11424;BMP180;5768;51.476;7.210;2022-08-21T23:57:05;100323.00;;;21.70
